Time;durP1;ratioP1;P1;durP2;ratioP2;P2;SDS_P1;SDS_P2;PMS_P1;PMS_P2;Temp;Humidity;BMP_temperature;BMP_pressure;BME280_temperature;BME280_humidity;BME280_pressure;Samples;Min_cycle;Max_cycle;Signal;HPM_P1;HPM_P2
2022/03/04 00:02:25;;;;;;;44.08;27.88;;;5.70;98.30;;;;;;5050802;28;20036;-58
2022/03/04 00:04:51;;;;;;;42.50;26.63;;;5.60;99.40;;;;;;5051397;28;20463;-58
2022/03/04 00:07:19;;;;;;;42.58;26.85;;;5.50;99.00;;;;;;5051688;28;20112;-57
2022/03/04 00:09:45;;;;;;;44.70;26.63;;;5.60;99.00;;;;;;5051663;28;20037;-57
2022/03/04 00:12:10;;;;;;;40.20;26.23;;;5.50;99.10;;;;;;5050843;28;20033;-57
2022/03/04 00:14:36;;;;;;;43.45;25.70;;;5.40;99.40;;;;;;5051113;28;20036;-57
2022/03/04 00:17:01;;;;;;;45.33;26.33;;;5.30;99.30;;;;;;5051014;28;20025;-57
2022/03/04 00:19:27;;;;;;;44.13;25.52;;;5.20;99.90;;;;;;5051003;28;20474;-58
2022/03/04 00:21:53;;;;;;;43.97;27.55;;;5.10;99.90;;;;;;5050010;28;20469;-57
2022/03/04 00:24:22;;;;;;;44.63;26.33;;;5.20;99.90;;;;;;5051391;28;20050;-58
2022/03/04 00:26:48;;;;;;;43.83;26.60;;;5.20;99.90;;;;;;5051149;28;20117;-58
2022/03/04 00:29:15;;;;;;;41.80;25.40;;;5.30;99.70;;;;;;5051272;28;20028;-57
2022/03/04 00:31:41;;;;;;;39.97;25.15;;;5.20;99.70;;;;;;5050931;28;20041;-57
2022/03/04 00:34:07;;;;;;;45.80;26.45;;;5.10;99.90;;;;;;5051302;28;20029;-57
2022/03/04 00:36:34;;;;;;;43.50;26.35;;;5.00;99.90;;;;;;5050734;28;20047;-57
2022/03/04 00:38:59;;;;;;;44.15;26.33;;;5.00;99.90;;;;;;5052039;28;20028;-57
2022/03/04 00:41:25;;;;;;;41.40;26.60;;;5.00;99.90;;;;;;5055089;28;20422;-57
2022/03/04 00:43:52;;;;;;;44.15;26.73;;;4.90;99.90;;;;;;5054502;28;20100;-57
2022/03/04 00:46:18;;;;;;;49.50;26.10;;;4.90;99.90;;;;;;5054848;28;20127;-57
2022/03/04 00:48:45;;;;;;;44.78;25.85;;;4.90;99.90;;;;;;5054962;28;20025;-57
2022/03/04 00:51:12;;;;;;;42.28;26.17;;;4.80;99.90;;;;;;5054612;28;20076;-57
2022/03/04 00:53:38;;;;;;;43.17;26.88;;;4.80;99.90;;;;;;5054845;28;20386;-57
2022/03/04 00:56:06;;;;;;;47.83;27.50;;;4.80;99.90;;;;;;5054439;28;20522;-57
2022/03/04 00:58:33;;;;;;;44.45;26.58;;;4.80;99.90;;;;;;5054260;28;20021;-57
2022/03/04 01:00:59;;;;;;;42.90;27.15;;;4.80;99.90;;;;;;5054288;28;20493;-57
2022/03/04 01:03:24;;;;;;;48.45;27.50;;;4.80;99.90;;;;;;5053792;28;20037;-57
2022/03/04 01:05:50;;;;;;;50.95;27.80;;;4.70;99.90;;;;;;5054625;28;20025;-57
2022/03/04 01:08:16;;;;;;;48.45;27.55;;;4.70;99.90;;;;;;5053123;28;20028;-57
2022/03/04 01:10:41;;;;;;;45.15;27.00;;;4.60;99.90;;;;;;5054506;28;20111;-57
2022/03/04 01:13:07;;;;;;;43.42;27.17;;;4.60;99.90;;;;;;5054182;28;20116;-57
2022/03/04 01:15:32;;;;;;;45.47;28.95;;;4.50;99.90;;;;;;5054239;28;20062;-58
2022/03/04 01:17:58;;;;;;;46.45;27.30;;;4.60;99.90;;;;;;5054031;28;20478;-57
2022/03/04 01:20:24;;;;;;;46.75;27.90;;;4.50;99.90;;;;;;5053943;28;20453;-57
2022/03/04 01:22:50;;;;;;;47.83;27.02;;;4.40;99.90;;;;;;5053755;28;20025;-57
2022/03/04 01:25:15;;;;;;;43.05;27.63;;;4.30;99.90;;;;;;5053986;28;20021;-57
2022/03/04 01:27:41;;;;;;;44.97;27.75;;;4.30;99.90;;;;;;5053862;28;20025;-57
2022/03/04 01:30:08;;;;;;;44.40;27.05;;;4.30;99.90;;;;;;5053991;28;20025;-58
2022/03/04 01:32:35;;;;;;;45.08;27.40;;;4.30;99.90;;;;;;5053311;28;20494;-57
2022/03/04 01:35:01;;;;;;;47.00;27.17;;;4.20;99.90;;;;;;5053853;28;20048;-57
2022/03/04 01:37:27;;;;;;;44.47;27.35;;;4.20;99.90;;;;;;5053377;28;20078;-57
2022/03/04 01:39:53;;;;;;;47.33;27.25;;;4.10;99.90;;;;;;5053447;28;20025;-57
2022/03/04 01:42:18;;;;;;;46.95;28.77;;;4.10;99.90;;;;;;5053250;28;20100;-57
2022/03/04 01:44:46;;;;;;;47.08;28.10;;;4.10;99.90;;;;;;5053543;28;20032;-57
2022/03/04 01:47:12;;;;;;;43.00;27.85;;;4.10;99.90;;;;;;5053665;28;20029;-57
2022/03/04 01:49:41;;;;;;;43.38;27.05;;;4.00;99.90;;;;;;5053199;28;20409;-57
2022/03/04 01:52:08;;;;;;;48.30;27.83;;;4.00;99.90;;;;;;5053720;28;20029;-57
2022/03/04 01:54:34;;;;;;;46.17;27.92;;;4.00;99.90;;;;;;5053955;28;20028;-57
2022/03/04 01:57:00;;;;;;;49.05;26.92;;;3.90;99.90;;;;;;5053663;28;20017;-57
2022/03/04 01:59:26;;;;;;;44.65;27.63;;;3.70;99.90;;;;;;5053435;28;20066;-57
2022/03/04 02:01:52;;;;;;;43.25;26.77;;;3.50;99.90;;;;;;5052897;28;20055;-58
2022/03/04 02:04:22;;;;;;;50.97;27.27;;;3.60;99.90;;;;;;5053432;28;20043;-57
2022/03/04 02:06:48;;;;;;;47.50;27.67;;;3.70;99.90;;;;;;5052207;28;20116;-57
2022/03/04 02:09:14;;;;;;;43.08;25.05;;;3.70;99.90;;;;;;5053214;28;20057;-57
2022/03/04 02:11:43;;;;;;;43.80;26.05;;;3.80;99.90;;;;;;5053478;28;20078;-57
2022/03/04 02:14:11;;;;;;;50.50;26.45;;;4.00;99.90;;;;;;5052037;28;20390;-57
2022/03/04 02:16:40;;;;;;;42.85;25.80;;;4.00;99.90;;;;;;5053253;28;20023;-57
2022/03/04 02:19:05;;;;;;;49.33;26.48;;;4.00;99.90;;;;;;5052663;28;20107;-57
2022/03/04 02:21:32;;;;;;;45.85;26.52;;;3.90;99.90;;;;;;5053345;28;20072;-57
2022/03/04 02:23:58;;;;;;;46.05;25.27;;;4.20;99.90;;;;;;5053109;28;20033;-57
2022/03/04 02:26:24;;;;;;;44.45;23.98;;;4.50;99.90;;;;;;5051312;28;20029;-57
2022/03/04 02:28:50;;;;;;;43.90;25.17;;;4.40;99.90;;;;;;5053053;28;20077;-57
2022/03/04 02:31:18;;;;;;;46.80;25.63;;;4.50;99.90;;;;;;5051089;28;20052;-57
2022/03/04 02:33:45;;;;;;;46.28;25.10;;;4.50;99.90;;;;;;5051728;28;20162;-57
2022/03/04 02:36:11;;;;;;;47.53;26.73;;;4.40;99.90;;;;;;5051255;28;20021;-57
2022/03/04 02:38:36;;;;;;;45.08;26.70;;;4.30;99.90;;;;;;5052938;28;20055;-57
2022/03/04 02:41:02;;;;;;;43.50;25.48;;;4.20;99.90;;;;;;5052771;28;20490;-57
2022/03/04 02:43:28;;;;;;;40.75;25.00;;;4.20;99.90;;;;;;5052527;28;20033;-58
2022/03/04 02:45:53;;;;;;;46.80;25.95;;;4.20;99.90;;;;;;5052415;28;20025;-57
2022/03/04 02:48:19;;;;;;;43.97;25.92;;;4.10;99.90;;;;;;5052242;28;20071;-57
2022/03/04 02:50:45;;;;;;;44.38;27.00;;;4.00;99.90;;;;;;5053320;28;20398;-57
2022/03/04 02:53:11;;;;;;;42.83;26.30;;;3.90;99.90;;;;;;5053102;28;20025;-57
2022/03/04 02:55:36;;;;;;;42.60;25.30;;;3.80;99.90;;;;;;5052540;28;20024;-57
2022/03/04 02:58:02;;;;;;;46.63;26.05;;;3.50;99.90;;;;;;5052297;28;20025;-57
2022/03/04 03:00:28;;;;;;;46.80;25.80;;;3.40;99.90;;;;;;5051951;28;20060;-57
2022/03/04 03:02:54;;;;;;;42.05;25.80;;;3.40;99.90;;;;;;5051743;28;20037;-57
2022/03/04 03:05:23;;;;;;;43.50;25.35;;;3.40;99.90;;;;;;5052285;28;20081;-57
2022/03/04 03:07:49;;;;;;;43.72;26.33;;;3.40;99.90;;;;;;5051503;28;20017;-57
2022/03/04 03:10:15;;;;;;;43.55;26.17;;;3.40;99.90;;;;;;5052936;28;20118;-57
2022/03/04 03:12:42;;;;;;;43.97;25.35;;;3.40;99.90;;;;;;5051936;28;20036;-57
2022/03/04 03:15:09;;;;;;;53.92;26.08;;;3.40;99.90;;;;;;5052235;28;20029;-57
2022/03/04 03:17:35;;;;;;;49.13;26.13;;;3.30;99.90;;;;;;5052175;28;20021;-58
2022/03/04 03:20:02;;;;;;;48.65;26.38;;;3.30;99.90;;;;;;5052090;28;20389;-57
2022/03/04 03:22:28;;;;;;;45.33;26.27;;;3.40;99.90;;;;;;5051914;28;20504;-57
2022/03/04 03:24:54;;;;;;;47.88;25.60;;;3.40;99.90;;;;;;5052930;28;20025;-57
2022/03/04 03:27:20;;;;;;;44.53;24.95;;;3.40;99.90;;;;;;5052222;28;20033;-57
2022/03/04 03:29:46;;;;;;;42.13;26.27;;;3.40;99.90;;;;;;5052071;28;20017;-57
2022/03/04 03:32:12;;;;;;;46.08;25.67;;;3.50;99.90;;;;;;5051889;28;20090;-57
2022/03/04 03:34:40;;;;;;;42.05;26.08;;;3.50;99.90;;;;;;5050852;28;20049;-57
2022/03/04 03:37:07;;;;;;;40.63;26.10;;;3.40;99.90;;;;;;5052167;28;20056;-57
2022/03/04 03:39:33;;;;;;;42.08;25.90;;;3.20;99.90;;;;;;5051955;28;20025;-57
2022/03/04 03:41:59;;;;;;;44.15;25.90;;;3.00;99.90;;;;;;5052012;28;20039;-57
2022/03/04 03:44:24;;;;;;;47.35;26.58;;;2.80;99.90;;;;;;5051776;28;20029;-57
2022/03/04 03:46:50;;;;;;;45.33;26.08;;;2.80;99.90;;;;;;5052004;28;20025;-57
2022/03/04 03:49:16;;;;;;;42.53;25.85;;;2.80;99.90;;;;;;5051958;28;20065;-57
2022/03/04 03:51:42;;;;;;;47.30;27.45;;;2.70;99.90;;;;;;5052050;28;20031;-57
2022/03/04 03:54:07;;;;;;;48.72;27.17;;;2.70;99.90;;;;;;5052136;28;20025;-57
2022/03/04 03:56:33;;;;;;;48.10;26.65;;;2.70;99.90;;;;;;5051888;28;20025;-57
2022/03/04 03:58:59;;;;;;;45.72;26.83;;;2.70;99.90;;;;;;5051803;28;20494;-57
2022/03/04 04:01:24;;;;;;;45.75;27.02;;;2.80;99.90;;;;;;5051677;28;20325;-57
2022/03/04 04:03:50;;;;;;;41.70;26.15;;;2.80;99.90;;;;;;5050864;28;20028;-57
2022/03/04 04:06:16;;;;;;;43.38;25.80;;;2.80;99.90;;;;;;5050640;28;20025;-57
2022/03/04 04:08:42;;;;;;;40.97;25.02;;;2.90;99.90;;;;;;5050754;28;20064;-57
2022/03/04 04:11:07;;;;;;;44.30;24.33;;;3.00;99.90;;;;;;5051632;28;20122;-57
2022/03/04 04:13:33;;;;;;;42.95;25.05;;;3.00;99.90;;;;;;5054731;28;20021;-58
2022/03/04 04:15:59;;;;;;;41.80;24.48;;;3.10;99.90;;;;;;5055566;28;20021;-58
2022/03/04 04:18:25;;;;;;;42.83;25.02;;;3.10;99.90;;;;;;5055365;28;20102;-57
2022/03/04 04:20:51;;;;;;;45.00;24.65;;;3.20;99.90;;;;;;5055233;28;20032;-58
2022/03/04 04:23:17;;;;;;;44.13;24.33;;;3.30;99.90;;;;;;5055119;28;20025;-57
2022/03/04 04:25:43;;;;;;;41.08;25.33;;;3.30;99.90;;;;;;5055713;28;20028;-57
2022/03/04 04:28:09;;;;;;;45.22;25.83;;;3.30;99.90;;;;;;5055509;28;20033;-55
2022/03/04 04:30:34;;;;;;;41.33;24.75;;;3.20;99.90;;;;;;5055245;28;20029;-55
2022/03/04 04:33:00;;;;;;;39.20;23.90;;;3.20;99.90;;;;;;5055801;28;20405;-55
2022/03/04 04:35:26;;;;;;;48.65;25.17;;;3.20;99.90;;;;;;5055566;28;20021;-56
2022/03/04 04:37:51;;;;;;;41.88;23.70;;;3.20;99.90;;;;;;5055570;28;20099;-56
2022/03/04 04:40:17;;;;;;;44.80;25.17;;;3.20;99.90;;;;;;5055089;28;20067;-55
2022/03/04 04:42:42;;;;;;;39.70;24.35;;;3.20;99.90;;;;;;5053830;28;20029;-56
2022/03/04 04:45:09;;;;;;;42.22;25.05;;;3.20;99.90;;;;;;5055006;28;20147;-56
2022/03/04 04:47:35;;;;;;;48.20;25.33;;;3.10;99.90;;;;;;5054259;28;20028;-56
2022/03/04 04:50:01;;;;;;;46.83;24.33;;;3.20;99.90;;;;;;5055167;28;20025;-56
2022/03/04 04:52:27;;;;;;;43.85;25.45;;;3.20;99.90;;;;;;5067828;28;20025;-56
2022/03/04 04:54:52;;;;;;;42.58;24.92;;;3.20;99.90;;;;;;5068966;28;20064;-55
2022/03/04 04:57:18;;;;;;;42.92;24.67;;;3.20;99.90;;;;;;5070615;28;20033;-56
2022/03/04 04:59:44;;;;;;;44.47;24.75;;;3.30;99.90;;;;;;5073202;28;20264;-56
2022/03/04 05:02:09;;;;;;;41.97;24.35;;;3.30;99.90;;;;;;5073010;28;20025;-56
2022/03/04 05:04:35;;;;;;;43.53;25.05;;;3.30;99.90;;;;;;5073677;28;20106;-56
2022/03/04 05:07:04;;;;;;;40.08;23.55;;;3.20;99.90;;;;;;5071528;28;20559;-56
2022/03/04 05:09:32;;;;;;;40.80;24.05;;;3.30;99.90;;;;;;5070795;28;20104;-56
2022/03/04 05:11:58;;;;;;;48.97;27.65;;;3.40;99.90;;;;;;5071433;28;20021;-56
2022/03/04 05:14:23;;;;;;;50.53;28.45;;;3.30;99.90;;;;;;5068071;28;20048;-60
2022/03/04 05:16:49;;;;;;;47.03;27.48;;;3.30;99.90;;;;;;5064706;28;20024;-58
2022/03/04 05:19:14;;;;;;;42.80;24.27;;;3.20;99.90;;;;;;5064922;28;20021;-59
2022/03/04 05:21:40;;;;;;;45.08;26.83;;;3.20;99.90;;;;;;5067800;28;20025;-56
2022/03/04 05:24:07;;;;;;;51.53;26.70;;;3.20;99.90;;;;;;5068262;28;20025;-56
2022/03/04 05:26:37;;;;;;;45.45;27.10;;;3.10;99.90;;;;;;5069037;28;20017;-57
2022/03/04 05:29:09;;;;;;;50.90;27.52;;;3.00;99.90;;;;;;5068273;28;20031;-56
2022/03/04 05:31:35;;;;;;;47.45;26.40;;;2.80;99.90;;;;;;5066094;28;20041;-57
2022/03/04 05:34:01;;;;;;;53.13;28.30;;;2.70;99.90;;;;;;5065502;28;20032;-57
2022/03/04 05:36:27;;;;;;;55.03;28.40;;;2.60;99.90;;;;;;5066012;28;20029;-56
2022/03/04 05:38:53;;;;;;;53.30;28.73;;;2.50;99.90;;;;;;5067510;28;20025;-57
2022/03/04 05:41:19;;;;;;;52.08;28.10;;;2.50;99.90;;;;;;5070379;28;20028;-57
2022/03/04 05:43:46;;;;;;;46.70;27.67;;;2.40;99.90;;;;;;5071089;28;20021;-57
2022/03/04 05:46:13;;;;;;;46.90;28.48;;;2.40;99.90;;;;;;5070313;28;20041;-57
2022/03/04 05:48:39;;;;;;;50.95;29.25;;;2.30;99.90;;;;;;5067562;28;20405;-57
2022/03/04 05:51:05;;;;;;;47.78;28.63;;;2.40;99.90;;;;;;5066148;28;20017;-57
2022/03/04 05:53:32;;;;;;;49.60;27.67;;;2.40;99.90;;;;;;5067181;28;20490;-57
2022/03/04 05:55:59;;;;;;;53.60;28.38;;;2.50;99.90;;;;;;5067799;28;20036;-57
2022/03/04 05:58:25;;;;;;;52.03;27.95;;;2.40;99.90;;;;;;5066249;28;20055;-57
2022/03/04 06:00:51;;;;;;;54.38;29.23;;;2.20;99.90;;;;;;5066406;28;20032;-57
2022/03/04 06:03:16;;;;;;;49.97;27.83;;;2.20;99.90;;;;;;5065158;28;20054;-57
2022/03/04 06:05:42;;;;;;;47.85;28.13;;;2.20;99.90;;;;;;5064397;28;20178;-57
2022/03/04 06:08:08;;;;;;;48.55;27.27;;;2.20;99.90;;;;;;5065751;28;20029;-57
2022/03/04 06:10:34;;;;;;;48.63;27.13;;;2.20;99.90;;;;;;5064971;28;20030;-57
2022/03/04 06:12:59;;;;;;;53.17;28.77;;;2.20;99.90;;;;;;5066370;28;20037;-57
2022/03/04 06:15:25;;;;;;;50.03;27.38;;;2.20;99.90;;;;;;5066305;28;20033;-57
2022/03/04 06:17:51;;;;;;;48.25;26.63;;;2.00;99.90;;;;;;5065317;28;20069;-57
2022/03/04 06:20:18;;;;;;;46.80;26.73;;;1.90;99.90;;;;;;5065134;28;20048;-57
2022/03/04 06:22:44;;;;;;;43.72;26.85;;;1.90;99.90;;;;;;5066396;28;20048;-57
2022/03/04 06:25:11;;;;;;;45.15;26.90;;;1.80;99.90;;;;;;5058833;28;20502;-57
2022/03/04 06:27:37;;;;;;;48.35;27.63;;;1.90;99.90;;;;;;5052860;28;20079;-57
2022/03/04 06:30:04;;;;;;;50.92;27.48;;;1.90;99.90;;;;;;5054229;28;20025;-57
2022/03/04 06:32:30;;;;;;;46.80;26.90;;;1.80;99.90;;;;;;5053732;28;20490;-57
2022/03/04 06:34:57;;;;;;;47.30;26.85;;;1.90;99.90;;;;;;5054300;28;20108;-57
2022/03/04 06:37:23;;;;;;;48.65;27.27;;;1.90;99.90;;;;;;5053336;28;20404;-58
2022/03/04 06:39:49;;;;;;;46.67;27.83;;;2.00;99.90;;;;;;5053810;28;20057;-57
2022/03/04 06:42:14;;;;;;;46.55;27.85;;;2.10;99.90;;;;;;5053861;28;20025;-57
2022/03/04 06:44:40;;;;;;;47.42;27.33;;;2.20;99.90;;;;;;5052580;28;20055;-57
2022/03/04 06:47:07;;;;;;;55.50;28.75;;;2.30;99.90;;;;;;5053718;28;20025;-57
2022/03/04 06:49:33;;;;;;;46.88;26.63;;;2.30;99.90;;;;;;5052906;28;20021;-58
2022/03/04 06:51:58;;;;;;;49.22;26.55;;;2.40;99.90;;;;;;5051753;28;20429;-57
2022/03/04 06:54:24;;;;;;;47.25;27.40;;;2.30;99.90;;;;;;5052128;28;20084;-57
2022/03/04 06:56:50;;;;;;;46.88;25.98;;;2.40;99.90;;;;;;5052429;28;20025;-58
2022/03/04 06:59:15;;;;;;;46.83;27.13;;;2.40;99.90;;;;;;5052467;28;20112;-57
2022/03/04 07:01:42;;;;;;;44.78;25.98;;;2.50;99.90;;;;;;5052413;28;20446;-57
2022/03/04 07:04:07;;;;;;;45.33;24.92;;;2.60;99.90;;;;;;5052071;28;20098;-57
2022/03/04 07:06:33;;;;;;;44.67;24.75;;;2.50;99.90;;;;;;5051297;28;20029;-57
2022/03/04 07:08:59;;;;;;;47.42;25.80;;;2.40;99.90;;;;;;5051641;28;20086;-57
2022/03/04 07:11:24;;;;;;;45.55;24.38;;;2.50;99.90;;;;;;5052037;28;20561;-57
2022/03/04 07:13:50;;;;;;;42.95;25.45;;;2.60;99.90;;;;;;5052127;28;20024;-57
2022/03/04 07:16:16;;;;;;;40.78;25.27;;;2.80;99.90;;;;;;5052300;28;20035;-57
2022/03/04 07:18:41;;;;;;;39.97;24.10;;;3.00;99.90;;;;;;5052284;28;20291;-57
2022/03/04 07:21:08;;;;;;;43.15;24.13;;;3.20;99.90;;;;;;5052473;28;20116;-57
2022/03/04 07:23:33;;;;;;;43.92;25.02;;;3.30;99.90;;;;;;5052179;28;20090;-57
2022/03/04 07:25:59;;;;;;;41.97;25.00;;;3.30;99.90;;;;;;5051643;28;20416;-57
2022/03/04 07:28:25;;;;;;;41.20;25.00;;;3.20;99.90;;;;;;5051681;28;20044;-57
2022/03/04 07:30:51;;;;;;;38.58;23.50;;;3.30;99.90;;;;;;5051617;28;20053;-57
2022/03/04 07:33:17;;;;;;;46.20;24.42;;;3.40;99.90;;;;;;5053736;28;20094;-57
2022/03/04 07:35:45;;;;;;;40.22;23.42;;;3.50;99.90;;;;;;5052392;28;20017;-57
2022/03/04 07:38:12;;;;;;;41.80;24.60;;;3.50;99.90;;;;;;5052279;28;20029;-57
2022/03/04 07:40:38;;;;;;;39.65;24.15;;;3.60;99.90;;;;;;5051883;28;20478;-57
2022/03/04 07:43:04;;;;;;;42.25;24.92;;;3.70;99.90;;;;;;5052030;28;20078;-57
2022/03/04 07:45:29;;;;;;;40.20;23.17;;;3.80;99.90;;;;;;5052109;28;20029;-57
2022/03/04 07:47:55;;;;;;;37.22;22.40;;;3.80;99.90;;;;;;5054518;28;20071;-57
2022/03/04 07:50:21;;;;;;;39.10;22.92;;;3.80;99.90;;;;;;5056403;28;20033;-57
2022/03/04 07:52:46;;;;;;;41.65;23.90;;;3.90;99.90;;;;;;5055606;28;20036;-57
2022/03/04 07:55:14;;;;;;;44.60;23.67;;;4.20;99.90;;;;;;5056007;28;20021;-57
2022/03/04 07:57:40;;;;;;;40.80;22.30;;;4.50;99.90;;;;;;5055961;28;20075;-57
2022/03/04 08:00:09;;;;;;;40.78;22.33;;;4.60;99.90;;;;;;5055268;28;20028;-57
2022/03/04 08:02:36;;;;;;;35.90;22.10;;;4.80;99.90;;;;;;5054981;28;20493;-57
2022/03/04 08:05:02;;;;;;;35.78;22.45;;;4.80;99.90;;;;;;5055587;28;20064;-57
2022/03/04 08:07:27;;;;;;;39.50;21.92;;;4.90;99.90;;;;;;5056673;28;20545;-57
2022/03/04 08:09:53;;;;;;;34.25;20.52;;;4.90;99.90;;;;;;5055571;28;20024;-57
2022/03/04 08:12:20;;;;;;;36.63;22.85;;;5.10;99.90;;;;;;5055660;28;20032;-57
2022/03/04 08:14:46;;;;;;;34.72;21.38;;;5.10;99.90;;;;;;5055515;28;20032;-57
2022/03/04 08:17:12;;;;;;;33.13;20.67;;;5.30;99.90;;;;;;5055832;28;20017;-57
2022/03/04 08:19:39;;;;;;;34.85;20.67;;;5.40;99.90;;;;;;5055918;28;20025;-57
2022/03/04 08:22:05;;;;;;;35.85;20.40;;;5.60;99.90;;;;;;5055013;28;20021;-57
2022/03/04 08:24:31;;;;;;;33.10;20.75;;;6.50;99.90;;;;;;5053399;28;20100;-58
2022/03/04 08:26:57;;;;;;;33.85;20.00;;;7.80;99.90;;;;;;5054240;28;20032;-58
2022/03/04 08:29:23;;;;;;;30.25;19.30;;;8.50;99.90;;;;;;5054447;28;20025;-58
2022/03/04 08:31:49;;;;;;;28.23;17.95;;;9.30;98.50;;;;;;5054127;28;20047;-57
2022/03/04 08:34:15;;;;;;;29.23;18.88;;;10.00;96.90;;;;;;5054673;28;20398;-57
2022/03/04 08:36:40;;;;;;;28.63;18.98;;;9.90;95.50;;;;;;5054383;28;20020;-58
2022/03/04 08:39:06;;;;;;;29.08;18.83;;;10.20;94.40;;;;;;5054525;28;20029;-58
2022/03/04 08:41:41;;;;;;;28.67;18.65;;;10.40;93.90;;;;;;5054311;28;20033;-58
2022/03/04 08:44:06;;;;;;;31.08;19.23;;;10.60;94.10;;;;;;5058749;28;20032;-58
2022/03/04 08:46:32;;;;;;;32.40;19.50;;;10.40;93.80;;;;;;5062020;28;20029;-58
2022/03/04 08:48:58;;;;;;;26.70;19.45;;;10.40;94.00;;;;;;5061223;28;20035;-58
2022/03/04 08:51:25;;;;;;;28.40;18.95;;;11.20;93.20;;;;;;5060535;28;20017;-58
2022/03/04 08:53:52;;;;;;;26.38;18.77;;;12.00;91.40;;;;;;5053085;28;20147;-58
2022/03/04 08:56:18;;;;;;;24.77;19.08;;;12.50;90.80;;;;;;5052550;28;20025;-60
2022/03/04 08:58:43;;;;;;;27.27;19.35;;;13.00;87.00;;;;;;5052002;28;20112;-59
2022/03/04 09:01:09;;;;;;;25.80;19.08;;;12.70;89.40;;;;;;5052181;28;20025;-59
2022/03/04 09:03:35;;;;;;;26.65;18.10;;;13.00;87.10;;;;;;5053144;28;20017;-58
2022/03/04 09:06:00;;;;;;;26.25;18.23;;;13.80;85.40;;;;;;5052944;28;20025;-58
2022/03/04 09:08:26;;;;;;;27.05;18.65;;;14.40;82.20;;;;;;5052432;28;20025;-58
2022/03/04 09:10:51;;;;;;;24.77;18.30;;;14.60;80.80;;;;;;5052616;28;20072;-58
2022/03/04 09:13:17;;;;;;;24.08;17.60;;;14.40;79.80;;;;;;5052532;28;20020;-58
2022/03/04 09:15:43;;;;;;;23.60;17.63;;;14.00;79.50;;;;;;5052211;28;20050;-59
2022/03/04 09:18:08;;;;;;;28.48;18.83;;;13.80;79.70;;;;;;5052535;28;20025;-58
2022/03/04 09:20:34;;;;;;;23.88;18.60;;;14.20;79.90;;;;;;5052356;28;20104;-58
2022/03/04 09:23:00;;;;;;;28.13;18.45;;;13.60;79.20;;;;;;5050255;28;20033;-58
2022/03/04 09:25:27;;;;;;;26.30;18.15;;;13.60;79.30;;;;;;5048947;28;20021;-58
2022/03/04 09:27:53;;;;;;;23.63;17.73;;;14.20;77.20;;;;;;5050390;28;20032;-58
2022/03/04 09:30:19;;;;;;;27.48;17.88;;;14.10;76.70;;;;;;5050795;28;20029;-57
2022/03/04 09:32:45;;;;;;;26.42;17.33;;;14.00;77.20;;;;;;5051518;28;20105;-59
2022/03/04 09:35:11;;;;;;;23.35;17.67;;;13.90;78.20;;;;;;5049619;28;20434;-58
2022/03/04 09:37:37;;;;;;;27.52;17.92;;;13.70;78.70;;;;;;5050473;28;20075;-58
2022/03/04 09:40:07;;;;;;;33.67;19.60;;;14.10;78.00;;;;;;5051014;28;20412;-58
2022/03/04 09:42:33;;;;;;;33.35;19.42;;;14.40;76.50;;;;;;5050464;28;20100;-58
2022/03/04 09:44:59;;;;;;;28.70;21.05;;;14.40;77.00;;;;;;5049202;28;20052;-58
2022/03/04 09:47:25;;;;;;;30.23;22.17;;;15.00;74.50;;;;;;5055952;28;20051;-58
2022/03/04 09:49:53;;;;;;;28.48;20.38;;;15.00;73.90;;;;;;5051966;28;20025;-58
2022/03/04 09:52:20;;;;;;;35.95;21.30;;;14.90;74.10;;;;;;5053195;28;20394;-58
2022/03/04 09:54:48;;;;;;;28.88;19.92;;;15.00;71.70;;;;;;5049648;28;20032;-58
2022/03/04 09:57:14;;;;;;;39.33;21.10;;;14.80;70.70;;;;;;5051934;28;20055;-58
2022/03/04 09:59:40;;;;;;;28.55;20.73;;;14.40;71.10;;;;;;5049908;28;20024;-59
2022/03/04 10:02:06;;;;;;;27.33;19.40;;;14.70;73.40;;;;;;5053158;28;20029;-58
2022/03/04 10:04:33;;;;;;;26.48;19.17;;;15.30;71.60;;;;;;5051707;28;20454;-58
2022/03/04 10:07:08;;;;;;;29.92;18.20;;;15.00;70.60;;;;;;5051397;28;20039;-58
2022/03/04 10:09:45;;;;;;;25.08;17.77;;;14.40;73.50;;;;;;5048055;28;20115;-58
2022/03/04 10:12:13;;;;;;;28.95;18.73;;;14.10;73.80;;;;;;5057840;28;20028;-58
2022/03/04 10:15:03;;;;;;;29.25;19.20;;;13.40;75.90;;;;;;5066470;28;20024;-58
2022/03/04 10:17:33;;;;;;;29.30;18.65;;;13.70;72.00;;;;;;5070374;28;20025;-57
2022/03/04 10:20:03;;;;;;;29.60;18.98;;;13.50;73.40;;;;;;5060422;28;20032;-58
2022/03/04 10:22:45;;;;;;;26.17;18.80;;;13.40;72.90;;;;;;5058089;28;20140;-58
2022/03/04 10:25:24;;;;;;;28.20;18.13;;;13.70;72.00;;;;;;5054110;28;20115;-58
2022/03/04 10:27:51;;;;;;;27.92;19.15;;;13.70;71.40;;;;;;5052182;28;20526;-59
2022/03/04 10:30:28;;;;;;;26.50;18.75;;;14.00;73.70;;;;;;5051093;28;20021;-59
2022/03/04 10:33:12;;;;;;;35.92;22.60;;;14.10;70.70;;;;;;5051592;28;20407;-59
2022/03/04 10:35:39;;;;;;;29.45;20.45;;;14.30;73.10;;;;;;5051292;28;20025;-59
2022/03/04 10:38:04;;;;;;;30.45;21.38;;;14.80;71.40;;;;;;5052989;28;20036;-58
2022/03/04 10:40:43;;;;;;;26.95;18.67;;;14.10;71.10;;;;;;5052073;28;20017;-58
2022/03/04 10:43:10;;;;;;;35.88;21.85;;;13.90;71.50;;;;;;5051944;28;20016;-58
2022/03/04 10:45:45;;;;;;;33.45;20.63;;;13.50;73.10;;;;;;5052183;28;20059;-58
2022/03/04 10:48:15;;;;;;;30.20;18.98;;;13.70;73.30;;;;;;5051464;28;20064;-58
2022/03/04 10:50:43;;;;;;;27.70;19.40;;;14.30;71.80;;;;;;5054046;28;20029;-58
2022/03/04 10:53:13;;;;;;;29.42;19.42;;;14.30;72.90;;;;;;5052254;28;20497;-58
2022/03/04 10:55:55;;;;;;;28.92;19.48;;;14.20;71.90;;;;;;5054857;28;20083;-58
2022/03/04 10:58:24;;;;;;;29.42;20.10;;;14.20;72.50;;;;;;5058467;28;20029;-58
2022/03/04 11:01:02;;;;;;;29.90;18.88;;;14.20;73.90;;;;;;5055668;28;20202;-58
2022/03/04 11:03:32;;;;;;;26.83;19.38;;;14.60;72.50;;;;;;5056277;28;20162;-58
2022/03/04 11:06:03;;;;;;;28.25;18.27;;;14.30;72.80;;;;;;5058325;28;20064;-58
2022/03/04 11:08:29;;;;;;;26.48;18.63;;;14.70;73.40;;;;;;5056083;28;20114;-58
2022/03/04 11:10:56;;;;;;;28.10;18.63;;;14.50;72.90;;;;;;5055876;28;20387;-58
2022/03/04 11:13:23;;;;;;;31.10;19.70;;;15.00;73.50;;;;;;5056320;28;20029;-58
2022/03/04 11:15:50;;;;;;;27.88;19.15;;;14.90;72.30;;;;;;5058478;28;20071;-58
2022/03/04 11:18:18;;;;;;;26.45;18.60;;;15.00;72.90;;;;;;5058669;28;20024;-58
2022/03/04 11:20:47;;;;;;;28.13;19.25;;;14.70;72.90;;;;;;5054080;28;20083;-59
2022/03/04 11:23:22;;;;;;;30.38;20.65;;;14.90;72.90;;;;;;5053889;28;20017;-59
2022/03/04 11:25:59;;;;;;;30.58;20.27;;;15.20;73.10;;;;;;5050597;28;20032;-59
2022/03/04 11:28:49;;;;;;;25.45;18.92;;;15.70;70.50;;;;;;5049899;28;20021;-59
2022/03/04 11:31:20;;;;;;;30.50;20.08;;;15.50;70.40;;;;;;5051143;28;20474;-58
2022/03/04 11:33:51;;;;;;;27.63;19.80;;;15.50;73.00;;;;;;5050368;28;20028;-59
2022/03/04 11:36:25;;;;;;;27.27;20.00;;;16.30;70.20;;;;;;5049885;28;20467;-59
2022/03/04 11:38:54;;;;;;;30.52;20.55;;;16.50;69.20;;;;;;5049753;28;20029;-58
2022/03/04 11:41:22;;;;;;;30.58;20.33;;;16.40;70.10;;;;;;5049713;28;20033;-58
2022/03/04 11:43:50;;;;;;;26.95;19.67;;;16.50;69.80;;;;;;5049868;28;20037;-58
2022/03/04 11:46:23;;;;;;;30.67;20.58;;;16.50;68.10;;;;;;5050290;28;20499;-58
2022/03/04 11:49:26;;;;;;;29.33;21.08;;;16.00;70.70;;;;;;5049507;28;20585;-58
2022/03/04 11:52:10;;;;;;;27.83;20.35;;;16.90;70.40;;;;;;5049360;28;20021;-58
2022/03/04 11:54:38;;;;;;;27.95;19.77;;;17.80;66.20;;;;;;5049927;28;20025;-58
2022/03/04 11:57:18;;;;;;;28.25;21.02;;;17.20;67.60;;;;;;5049202;28;20025;-58
2022/03/04 12:00:17;;;;;;;30.65;20.58;;;17.80;67.70;;;;;;5049786;28;20108;-58
2022/03/04 12:02:43;;;;;;;31.52;20.70;;;17.90;65.40;;;;;;5049874;28;20033;-58
2022/03/04 12:05:14;;;;;;;28.75;21.25;;;17.50;65.40;;;;;;5049761;28;20028;-58
2022/03/04 12:07:42;;;;;;;30.13;21.00;;;17.40;66.40;;;;;;5049834;28;20037;-59
2022/03/04 12:10:29;;;;;;;30.10;20.98;;;17.80;66.00;;;;;;5050626;28;20025;-58
2022/03/04 12:13:11;;;;;;;31.08;20.77;;;18.00;65.10;;;;;;5049187;28;20091;-58
2022/03/04 12:15:44;;;;;;;29.20;21.40;;;17.60;65.50;;;;;;5049681;28;20488;-58
2022/03/04 12:18:25;;;;;;;30.90;21.25;;;17.60;66.80;;;;;;5049205;28;20025;-58
2022/03/04 12:20:56;;;;;;;31.38;22.58;;;18.20;65.00;;;;;;5049500;28;20021;-58
2022/03/04 12:23:36;;;;;;;32.70;22.48;;;19.20;64.70;;;;;;5049465;28;20025;-58
2022/03/04 12:26:01;;;;;;;30.67;21.05;;;18.80;63.10;;;;;;5049498;28;20021;-58
2022/03/04 12:28:27;;;;;;;28.17;21.85;;;19.00;63.20;;;;;;5049273;28;20032;-58
2022/03/04 12:31:01;;;;;;;34.08;22.90;;;18.50;64.60;;;;;;5049186;28;20111;-58
2022/03/04 12:33:30;;;;;;;31.25;22.98;;;19.40;63.80;;;;;;5050288;28;20017;-59
2022/03/04 12:35:59;;;;;;;27.17;20.92;;;19.50;61.50;;;;;;5053440;28;20028;-59